Time;durP1;ratioP1;P1;durP2;ratioP2;P2;SDS_P1;SDS_P2;PMS_P1;PMS_P2;Temp;Humidity;BMP_temperature;BMP_pressure;BME280_temperature;BME280_humidity;BME280_pressure;Samples;Min_cycle;Max_cycle;Signal;HPM_P1;HPM_P2
2023/08/30 00:01:52;;;;;;;8.02;5.38;;;;;;;;;;5091082;28;20050;-75
2023/08/30 00:04:21;;;;;;;8.65;5.47;;;;;;;;;;5092647;28;20404;-74
2023/08/30 00:06:48;;;;;;;12.02;5.80;;;;;;;;;;5092700;28;20040;-75
2023/08/30 00:09:16;;;;;;;9.43;5.25;;;;;;;;;;5092437;28;20035;-74
2023/08/30 00:11:43;;;;;;;9.27;5.68;;;;;;;;;;5092386;28;20075;-74
2023/08/30 00:14:11;;;;;;;9.00;5.88;;;;;;;;;;5092407;28;20131;-74
2023/08/30 00:16:39;;;;;;;10.35;5.40;;;;;;;;;;5092408;28;20093;-74
2023/08/30 00:19:06;;;;;;;11.80;6.50;;;;;;;;;;5092243;28;20123;-74
2023/08/30 00:21:34;;;;;;;10.50;5.82;;;;;;;;;;5092291;28;20111;-73
2023/08/30 00:24:01;;;;;;;8.57;5.80;;;;;;;;;;5092095;28;20044;-75
2023/08/30 00:26:29;;;;;;;10.55;5.43;;;;;;;;;;5092433;28;20044;-73
2023/08/30 00:28:58;;;;;;;8.75;5.53;;;;;;;;;;5092849;28;20055;-74
2023/08/30 00:31:26;;;;;;;7.55;5.30;;;;;;;;;;5094705;28;20501;-73
2023/08/30 00:33:53;;;;;;;8.30;5.35;;;;;;;;;;5094533;28;20089;-76
2023/08/30 00:36:21;;;;;;;8.70;4.93;;;;;;;;;;5094611;28;20489;-74
2023/08/30 00:38:49;;;;;;;7.85;5.50;;;;;;;;;;5095786;28;20044;-74
2023/08/30 00:41:17;;;;;;;10.93;5.55;;;;;;;;;;5094496;28;20143;-75
2023/08/30 00:43:44;;;;;;;8.55;5.28;;;;;;;;;;5094469;28;20042;-75
2023/08/30 00:46:12;;;;;;;6.78;5.30;;;;;;;;;;5094417;28;20044;-76
2023/08/30 00:48:40;;;;;;;9.35;5.32;;;;;;;;;;5095608;28;20040;-74
2023/08/30 00:51:09;;;;;;;8.88;5.32;;;;;;;;;;5094441;28;20070;-74
2023/08/30 00:53:37;;;;;;;7.82;5.25;;;;;;;;;;5094152;28;20139;-74
2023/08/30 00:56:05;;;;;;;8.98;5.30;;;;;;;;;;5094154;28;20036;-75
2023/08/30 00:58:33;;;;;;;7.57;5.15;;;;;;;;;;5094048;28;20103;-75
2023/08/30 01:01:00;;;;;;;8.25;5.28;;;;;;;;;;5094127;28;20486;-75
2023/08/30 01:03:28;;;;;;;10.35;5.35;;;;;;;;;;5095356;28;20032;-75
2023/08/30 01:05:56;;;;;;;11.43;5.47;;;;;;;;;;5095266;28;20044;-73
2023/08/30 01:08:24;;;;;;;8.68;5.50;;;;;;;;;;5095313;28;20040;-73
2023/08/30 01:11:05;;;;;;;9.52;5.20;;;;;;;;;;5093820;28;20071;-74
2023/08/30 01:13:35;;;;;;;9.02;5.35;;;;;;;;;;5095266;28;20111;-74
2023/08/30 01:16:05;;;;;;;9.77;4.85;;;;;;;;;;5093867;28;20121;-74
2023/08/30 01:18:34;;;;;;;8.82;4.93;;;;;;;;;;5094945;28;20436;-74
2023/08/30 01:21:03;;;;;;;13.00;5.40;;;;;;;;;;5093766;28;20147;-74
2023/08/30 01:23:56;;;;;;;8.07;5.07;;;;;;;;;;5093649;28;20078;-73
2023/08/30 01:26:34;;;;;;;7.47;4.90;;;;;;;;;;5093472;28;20067;-75
2023/08/30 01:29:02;;;;;;;7.70;5.10;;;;;;;;;;5093597;28;20098;-75
2023/08/30 01:31:33;;;;;;;9.25;5.15;;;;;;;;;;5093604;28;20039;-75
2023/08/30 01:34:02;;;;;;;8.43;5.57;;;;;;;;;;5093559;28;20044;-74
2023/08/30 01:36:31;;;;;;;10.32;5.60;;;;;;;;;;5093521;28;20109;-75
2023/08/30 01:38:59;;;;;;;9.48;5.60;;;;;;;;;;5076555;28;20493;-74
2023/08/30 01:41:28;;;;;;;11.52;5.18;;;;;;;;;;5092946;28;20238;-75
2023/08/30 01:43:56;;;;;;;7.25;5.20;;;;;;;;;;5094510;28;20036;-75
2023/08/30 01:46:24;;;;;;;7.53;5.00;;;;;;;;;;5093287;28;20048;-75
2023/08/30 01:48:52;;;;;;;10.63;5.72;;;;;;;;;;5110228;28;20052;-73
2023/08/30 01:51:20;;;;;;;9.05;5.30;;;;;;;;;;5093204;28;20101;-73
2023/08/30 01:53:48;;;;;;;9.57;5.50;;;;;;;;;;5110142;28;20040;-73
2023/08/30 01:56:16;;;;;;;11.40;5.35;;;;;;;;;;5093096;28;20131;-75
2023/08/30 01:58:43;;;;;;;8.27;5.65;;;;;;;;;;5092999;28;20039;-74
2023/08/30 02:01:11;;;;;;;6.93;5.43;;;;;;;;;;5092934;28;20054;-75
2023/08/30 02:03:39;;;;;;;10.45;5.57;;;;;;;;;;5092969;28;20481;-74
2023/08/30 02:06:14;;;;;;;8.48;5.13;;;;;;;;;;5092958;28;20058;-74
2023/08/30 02:08:46;;;;;;;9.63;5.55;;;;;;;;;;5092866;28;20051;-74
2023/08/30 02:11:19;;;;;;;7.75;5.30;;;;;;;;;;5092589;28;20055;-74
2023/08/30 02:13:47;;;;;;;10.03;5.60;;;;;;;;;;5092760;28;20044;-74
2023/08/30 02:16:16;;;;;;;8.55;5.35;;;;;;;;;;5092748;28;20300;-75
2023/08/30 02:18:44;;;;;;;11.10;5.40;;;;;;;;;;5092411;28;20043;-75
2023/08/30 02:21:12;;;;;;;9.52;5.72;;;;;;;;;;5092634;28;20040;-75
2023/08/30 02:23:39;;;;;;;10.18;5.53;;;;;;;;;;5092463;28;20446;-74
2023/08/30 02:26:07;;;;;;;8.18;5.25;;;;;;;;;;5092260;28;20059;-74
2023/08/30 02:28:35;;;;;;;10.57;5.72;;;;;;;;;;5092431;28;20059;-74
2023/08/30 02:31:02;;;;;;;10.98;5.55;;;;;;;;;;5092459;28;20068;-73
2023/08/30 02:33:30;;;;;;;8.75;5.88;;;;;;;;;;5093668;28;20049;-73
2023/08/30 02:35:58;;;;;;;8.98;5.80;;;;;;;;;;5092421;28;20401;-75
2023/08/30 02:38:25;;;;;;;8.48;5.43;;;;;;;;;;5092201;28;20050;-74
2023/08/30 02:40:53;;;;;;;7.38;5.60;;;;;;;;;;5092229;28;20048;-74
2023/08/30 02:43:20;;;;;;;13.20;6.13;;;;;;;;;;5092072;28;20417;-74
2023/08/30 02:45:52;;;;;;;8.48;5.75;;;;;;;;;;5092140;28;20056;-74
2023/08/30 02:48:21;;;;;;;7.80;5.50;;;;;;;;;;5093388;28;20036;-75
2023/08/30 02:50:49;;;;;;;10.75;5.90;;;;;;;;;;5093231;28;20035;-75
2023/08/30 02:53:17;;;;;;;9.65;5.88;;;;;;;;;;5092527;28;20131;-75
2023/08/30 02:55:44;;;;;;;11.20;5.63;;;;;;;;;;5093161;28;20044;-75
2023/08/30 02:58:12;;;;;;;13.23;5.97;;;;;;;;;;5091783;28;20379;-73
2023/08/30 03:00:39;;;;;;;9.80;5.43;;;;;;;;;;5108852;28;20129;-75
2023/08/30 03:03:08;;;;;;;9.93;5.80;;;;;;;;;;5091879;28;20040;-75
2023/08/30 03:05:36;;;;;;;13.70;5.57;;;;;;;;;;5093087;28;20048;-73
2023/08/30 03:08:05;;;;;;;10.52;5.55;;;;;;;;;;5091488;28;20032;-73
2023/08/30 03:10:33;;;;;;;10.13;5.15;;;;;;;;;;5108782;28;20052;-73
2023/08/30 03:13:01;;;;;;;12.82;5.57;;;;;;;;;;5091748;28;20066;-75
2023/08/30 03:15:31;;;;;;;12.30;5.93;;;;;;;;;;5091582;28;20501;-75
2023/08/30 03:18:00;;;;;;;11.20;5.00;;;;;;;;;;5091670;28;20063;-74
2023/08/30 03:20:28;;;;;;;8.90;4.65;;;;;;;;;;5075159;28;20036;-75
2023/08/30 03:22:59;;;;;;;9.18;5.07;;;;;;;;;;5091347;28;20048;-75
2023/08/30 03:25:30;;;;;;;9.90;5.18;;;;;;;;;;5091280;28;20109;-75
2023/08/30 03:27:59;;;;;;;10.70;5.35;;;;;;;;;;5108463;28;20047;-74
2023/08/30 03:30:26;;;;;;;10.68;5.30;;;;;;;;;;5092652;28;20039;-75
2023/08/30 03:32:54;;;;;;;11.05;5.22;;;;;;;;;;5091411;28;20433;-74
2023/08/30 03:35:22;;;;;;;12.30;5.43;;;;;;;;;;5091435;28;20040;-73
2023/08/30 03:37:50;;;;;;;6.47;4.80;;;;;;;;;;5108132;28;20058;-73
2023/08/30 03:40:18;;;;;;;12.00;5.65;;;;;;;;;;5091084;28;20040;-74
2023/08/30 03:42:45;;;;;;;11.10;5.00;;;;;;;;;;5091078;28;20048;-73
2023/08/30 03:45:14;;;;;;;9.02;5.20;;;;;;;;;;5100889;28;20070;-74
2023/08/30 03:47:42;;;;;;;9.75;5.32;;;;;;;;;;5090640;28;20039;-74
2023/08/30 03:50:11;;;;;;;9.57;4.88;;;;;;;;;;5091243;28;20044;-74
2023/08/30 03:52:38;;;;;;;10.80;5.47;;;;;;;;;;5091125;28;20040;-74
2023/08/30 03:55:06;;;;;;;11.10;5.80;;;;;;;;;;5108039;28;20626;-75
2023/08/30 03:57:35;;;;;;;14.68;5.88;;;;;;;;;;5091294;28;20040;-72
2023/08/30 04:00:04;;;;;;;12.02;5.22;;;;;;;;;;5092401;28;20505;-75
2023/08/30 04:02:40;;;;;;;11.23;5.70;;;;;;;;;;5092187;28;20071;-75
2023/08/30 04:05:09;;;;;;;10.32;5.65;;;;;;;;;;5076377;28;20048;-75
2023/08/30 04:07:38;;;;;;;10.02;5.32;;;;;;;;;;5095045;28;20397;-74
2023/08/30 04:10:07;;;;;;;10.32;5.13;;;;;;;;;;5094765;28;20164;-75
2023/08/30 04:12:35;;;;;;;11.35;5.40;;;;;;;;;;5096085;28;20397;-75
2023/08/30 04:15:03;;;;;;;11.57;5.47;;;;;;;;;;5094673;28;20063;-74
2023/08/30 04:17:30;;;;;;;11.30;5.22;;;;;;;;;;5095560;28;20491;-74
2023/08/30 04:19:59;;;;;;;9.90;4.85;;;;;;;;;;5094296;28;20035;-74
2023/08/30 04:22:34;;;;;;;11.07;4.82;;;;;;;;;;5094513;28;20040;-74
2023/08/30 04:25:02;;;;;;;10.50;4.38;;;;;;;;;;5094071;28;20072;-74
2023/08/30 04:27:30;;;;;;;7.35;4.22;;;;;;;;;;5111557;28;20052;-75
2023/08/30 04:29:57;;;;;;;6.45;4.35;;;;;;;;;;5094235;28;20048;-73
2023/08/30 04:32:25;;;;;;;15.98;5.00;;;;;;;;;;5091430;28;20036;-73
2023/08/30 04:34:52;;;;;;;11.43;5.00;;;;;;;;;;5094539;28;20047;-74
2023/08/30 04:37:20;;;;;;;13.13;4.75;;;;;;;;;;5094113;28;20126;-74
2023/08/30 04:39:49;;;;;;;8.95;4.70;;;;;;;;;;5094429;28;20036;-74
2023/08/30 04:42:16;;;;;;;10.38;4.93;;;;;;;;;;5096034;28;20040;-73
2023/08/30 04:44:44;;;;;;;8.77;5.03;;;;;;;;;;5093953;28;20038;-74
2023/08/30 04:47:12;;;;;;;8.45;4.68;;;;;;;;;;5094350;28;20143;-72
2023/08/30 04:49:39;;;;;;;12.60;5.07;;;;;;;;;;5094659;28;20047;-72
2023/08/30 04:52:07;;;;;;;9.43;4.97;;;;;;;;;;5094598;28;20040;-75
2023/08/30 04:54:35;;;;;;;9.57;5.65;;;;;;;;;;5081706;28;20040;-72
2023/08/30 04:57:03;;;;;;;11.80;5.55;;;;;;;;;;5080982;28;20489;-73
2023/08/30 04:59:33;;;;;;;11.27;5.38;;;;;;;;;;5076787;28;20028;-72
2023/08/30 05:02:01;;;;;;;11.00;5.75;;;;;;;;;;5077023;28;20044;-72
2023/08/30 05:04:31;;;;;;;11.60;5.65;;;;;;;;;;5077696;28;20044;-72
2023/08/30 05:06:59;;;;;;;12.40;5.65;;;;;;;;;;5094219;28;20135;-72
2023/08/30 05:09:27;;;;;;;11.63;5.43;;;;;;;;;;5093981;28;20040;-72
2023/08/30 05:11:55;;;;;;;10.25;5.68;;;;;;;;;;5093991;28;20081;-71
2023/08/30 05:14:23;;;;;;;11.57;5.55;;;;;;;;;;5093848;28;20036;-73
2023/08/30 05:16:51;;;;;;;10.82;5.75;;;;;;;;;;5092930;28;20047;-72
2023/08/30 05:19:20;;;;;;;8.32;5.65;;;;;;;;;;5094172;28;20442;-72
2023/08/30 05:21:54;;;;;;;8.85;5.70;;;;;;;;;;5093783;28;20394;-73
2023/08/30 05:24:22;;;;;;;10.68;5.63;;;;;;;;;;5095067;28;20052;-75
2023/08/30 05:26:50;;;;;;;8.77;5.00;;;;;;;;;;5093803;28;20052;-73
2023/08/30 05:29:18;;;;;;;9.52;5.70;;;;;;;;;;5093898;28;20478;-72
2023/08/30 05:31:46;;;;;;;9.60;5.90;;;;;;;;;;5076921;28;20082;-74
2023/08/30 05:34:40;;;;;;;12.95;6.25;;;;;;;;;;5093442;28;20054;-73
2023/08/30 05:37:19;;;;;;;9.32;5.45;;;;;;;;;;5093401;28;20139;-73
2023/08/30 05:40:16;;;;;;;12.90;5.53;;;;;;;;;;5093384;28;20493;-72
2023/08/30 05:42:45;;;;;;;10.88;6.22;;;;;;;;;;5093389;28;20540;-72
2023/08/30 05:45:12;;;;;;;7.07;5.50;;;;;;;;;;5093621;28;20063;-72
2023/08/30 05:47:41;;;;;;;10.80;6.55;;;;;;;;;;5093230;28;20536;-73
2023/08/30 05:50:08;;;;;;;10.82;6.55;;;;;;;;;;5094710;28;20040;-72
2023/08/30 05:52:40;;;;;;;11.48;6.72;;;;;;;;;;5093352;28;20478;-73
2023/08/30 05:55:09;;;;;;;9.15;6.13;;;;;;;;;;5093117;28;20040;-73
2023/08/30 05:57:37;;;;;;;11.13;6.22;;;;;;;;;;5093068;28;20131;-72
2023/08/30 06:00:05;;;;;;;9.77;6.63;;;;;;;;;;5094233;28;20089;-73
2023/08/30 06:02:40;;;;;;;13.88;5.97;;;;;;;;;;5094139;28;20448;-72
2023/08/30 06:05:08;;;;;;;13.10;6.78;;;;;;;;;;5094205;28;20032;-74
2023/08/30 06:07:35;;;;;;;11.05;6.47;;;;;;;;;;5094260;28;20046;-73
2023/08/30 06:10:04;;;;;;;12.90;6.65;;;;;;;;;;5094049;28;20051;-72
2023/08/30 06:12:31;;;;;;;12.30;6.70;;;;;;;;;;5092820;28;20042;-72
2023/08/30 06:14:59;;;;;;;9.57;6.40;;;;;;;;;;5093977;28;20044;-72
2023/08/30 06:17:26;;;;;;;13.45;6.78;;;;;;;;;;5094086;28;20040;-73
2023/08/30 06:19:54;;;;;;;11.48;6.45;;;;;;;;;;5093767;28;20040;-72
2023/08/30 06:22:21;;;;;;;9.77;6.32;;;;;;;;;;5093992;28;20044;-72
2023/08/30 06:24:49;;;;;;;11.43;6.70;;;;;;;;;;5093547;28;20052;-73
2023/08/30 06:27:16;;;;;;;11.82;6.63;;;;;;;;;;5093705;28;20044;-73
2023/08/30 06:29:44;;;;;;;13.93;6.57;;;;;;;;;;5093760;28;20040;-73
2023/08/30 06:32:11;;;;;;;11.60;6.57;;;;;;;;;;5093726;28;20036;-72
2023/08/30 06:34:39;;;;;;;16.60;6.68;;;;;;;;;;5092389;28;20089;-72
2023/08/30 06:37:06;;;;;;;9.85;6.32;;;;;;;;;;5093469;28;20044;-74
2023/08/30 06:39:35;;;;;;;8.88;6.18;;;;;;;;;;5093692;28;20036;-73
2023/08/30 06:42:03;;;;;;;8.20;6.30;;;;;;;;;;5093346;28;20051;-73
2023/08/30 06:44:31;;;;;;;10.75;6.10;;;;;;;;;;5093543;28;20047;-72
2023/08/30 06:46:59;;;;;;;11.18;6.22;;;;;;;;;;5092328;28;20043;-74
2023/08/30 06:49:31;;;;;;;14.68;6.82;;;;;;;;;;5093269;28;20144;-72
2023/08/30 06:52:01;;;;;;;8.32;6.07;;;;;;;;;;5093291;28;20036;-73
2023/08/30 06:54:30;;;;;;;14.00;7.38;;;;;;;;;;5093246;28;20122;-71
2023/08/30 06:56:58;;;;;;;12.05;6.20;;;;;;;;;;5093092;28;20043;-71
2023/08/30 06:59:26;;;;;;;17.88;7.68;;;;;;;;;;5093196;28;20047;-71
2023/08/30 07:01:54;;;;;;;10.48;6.72;;;;;;;;;;5092912;28;20044;-72
2023/08/30 07:04:21;;;;;;;10.60;6.93;;;;;;;;;;5091804;28;20047;-72
2023/08/30 07:06:49;;;;;;;13.70;7.40;;;;;;;;;;5091732;28;20048;-71
2023/08/30 07:09:16;;;;;;;9.68;6.57;;;;;;;;;;5092970;28;20039;-72
2023/08/30 07:11:45;;;;;;;16.08;8.27;;;;;;;;;;5092826;28;20040;-71
2023/08/30 07:14:13;;;;;;;13.55;7.47;;;;;;;;;;5091825;28;20040;-71
2023/08/30 07:16:41;;;;;;;13.82;6.60;;;;;;;;;;5092748;28;20040;-71
2023/08/30 07:19:09;;;;;;;13.32;7.25;;;;;;;;;;5091603;28;20044;-72
2023/08/30 07:21:38;;;;;;;11.57;6.85;;;;;;;;;;5091651;28;20401;-72
2023/08/30 07:24:07;;;;;;;12.38;6.50;;;;;;;;;;5092687;28;20050;-72
2023/08/30 07:26:35;;;;;;;15.38;7.40;;;;;;;;;;5091376;28;20406;-72
2023/08/30 07:29:04;;;;;;;12.25;7.40;;;;;;;;;;5092713;28;20393;-72
2023/08/30 07:31:32;;;;;;;11.25;6.85;;;;;;;;;;5091491;28;20044;-71
2023/08/30 07:34:00;;;;;;;10.88;6.78;;;;;;;;;;5092640;28;20036;-72
2023/08/30 07:36:28;;;;;;;9.75;6.55;;;;;;;;;;5092889;28;20072;-73
2023/08/30 07:39:13;;;;;;;8.25;6.20;;;;;;;;;;5090883;28;20135;-72
2023/08/30 07:41:40;;;;;;;10.02;6.80;;;;;;;;;;5092730;28;20123;-73
2023/08/30 07:44:08;;;;;;;10.23;6.35;;;;;;;;;;5092449;28;20090;-72
2023/08/30 07:46:36;;;;;;;11.63;7.18;;;;;;;;;;5092588;28;20085;-73
2023/08/30 07:49:03;;;;;;;13.88;6.55;;;;;;;;;;5092553;28;20439;-73
2023/08/30 07:51:31;;;;;;;10.90;7.70;;;;;;;;;;5092352;28;20040;-73
2023/08/30 07:53:58;;;;;;;12.75;6.60;;;;;;;;;;5092332;28;20049;-73
2023/08/30 07:56:26;;;;;;;13.32;7.28;;;;;;;;;;5092185;28;20043;-74
2023/08/30 07:58:54;;;;;;;12.63;7.32;;;;;;;;;;5090849;28;20486;-74
2023/08/30 08:01:22;;;;;;;13.10;7.05;;;;;;;;;;5092182;28;20093;-72
2023/08/30 08:03:49;;;;;;;11.23;7.10;;;;;;;;;;5092270;28;20044;-74
2023/08/30 08:06:33;;;;;;;14.10;6.93;;;;;;;;;;5092479;28;20044;-73
2023/08/30 08:09:01;;;;;;;12.35;6.93;;;;;;;;;;5092237;28;20036;-75
2023/08/30 08:11:29;;;;;;;13.60;6.72;;;;;;;;;;5092171;28;20144;-69
2023/08/30 08:13:56;;;;;;;15.13;6.88;;;;;;;;;;5092518;28;20068;-76
2023/08/30 08:16:24;;;;;;;12.20;6.65;;;;;;;;;;5092472;28;20040;-75
2023/08/30 08:18:53;;;;;;;13.65;7.78;;;;;;;;;;5092397;28;20506;-76
2023/08/30 08:21:22;;;;;;;11.35;6.95;;;;;;;;;;5091892;28;20048;-74
2023/08/30 08:23:50;;;;;;;12.13;7.22;;;;;;;;;;5091191;28;20036;-73
2023/08/30 08:26:18;;;;;;;11.20;6.60;;;;;;;;;;5091720;28;20048;-73
2023/08/30 08:28:46;;;;;;;10.77;7.00;;;;;;;;;;5091834;28;20036;-75
2023/08/30 08:31:15;;;;;;;13.52;7.25;;;;;;;;;;5089351;28;20089;-74
2023/08/30 08:33:44;;;;;;;11.23;6.55;;;;;;;;;;5086709;28;20040;-74
2023/08/30 08:36:11;;;;;;;13.43;7.30;;;;;;;;;;5078882;28;20112;-73
2023/08/30 08:38:39;;;;;;;15.25;6.97;;;;;;;;;;5072065;28;20127;-75
2023/08/30 08:41:07;;;;;;;11.48;6.55;;;;;;;;;;5086772;28;20105;-73
2023/08/30 08:43:36;;;;;;;10.55;7.00;;;;;;;;;;5071455;28;20036;-73
2023/08/30 08:46:06;;;;;;;13.80;7.25;;;;;;;;;;5083142;28;20044;-73
2023/08/30 08:48:38;;;;;;;15.07;10.80;;;;;;;;;;5090651;28;20036;-74
2023/08/30 08:51:06;;;;;;;16.20;7.43;;;;;;;;;;5071190;28;20041;-72
2023/08/30 08:53:34;;;;;;;11.20;6.95;;;;;;;;;;5089214;28;20036;-77
2023/08/30 08:56:02;;;;;;;14.80;7.43;;;;;;;;;;5082429;28;20110;-75
2023/08/30 08:58:30;;;;;;;9.27;6.93;;;;;;;;;;5075290;28;20090;-75
2023/08/30 09:00:58;;;;;;;11.60;6.85;;;;;;;;;;5092261;28;20065;-74
2023/08/30 09:03:26;;;;;;;9.60;6.55;;;;;;;;;;5095430;28;20069;-73
2023/08/30 09:05:54;;;;;;;10.52;6.32;;;;;;;;;;5094927;28;20123;-73
2023/08/30 09:08:22;;;;;;;13.15;7.30;;;;;;;;;;5081388;28;20040;-72
2023/08/30 09:10:50;;;;;;;12.13;6.78;;;;;;;;;;5092055;28;20131;-75
2023/08/30 09:13:19;;;;;;;10.00;7.53;;;;;;;;;;5077210;28;20033;-76
2023/08/30 09:15:47;;;;;;;12.68;7.03;;;;;;;;;;5074942;28;20051;-71
2023/08/30 09:18:18;;;;;;;14.10;6.65;;;;;;;;;;5073784;28;20544;-73
2023/08/30 09:20:46;;;;;;;9.18;7.38;;;;;;;;;;5074797;28;20037;-74
2023/08/30 09:23:20;;;;;;;10.35;6.68;;;;;;;;;;5074439;28;20127;-74
2023/08/30 09:25:48;;;;;;;13.45;7.00;;;;;;;;;;5074512;28;20048;-74
2023/08/30 09:28:15;;;;;;;13.23;6.80;;;;;;;;;;5073373;28;20102;-75
2023/08/30 09:30:50;;;;;;;9.15;6.82;;;;;;;;;;5074693;28;20075;-77
2023/08/30 09:33:30;;;;;;;8.98;6.53;;;;;;;;;;5074588;28;20067;-76
2023/08/30 09:35:58;;;;;;;9.70;6.93;;;;;;;;;;5084444;28;20068;-76
2023/08/30 09:38:26;;;;;;;11.38;6.32;;;;;;;;;;5078853;28;20039;-74
2023/08/30 09:41:06;;;;;;;15.35;6.78;;;;;;;;;;5074087;28;20032;-76
2023/08/30 09:43:34;;;;;;;11.38;6.55;;;;;;;;;;5091509;28;20127;-73
2023/08/30 09:46:05;;;;;;;15.15;6.68;;;;;;;;;;5094545;28;20044;-77
2023/08/30 09:48:32;;;;;;;11.90;7.03;;;;;;;;;;5084307;28;20441;-76
2023/08/30 09:51:02;;;;;;;12.07;6.75;;;;;;;;;;5074154;28;20036;-73
2023/08/30 09:53:30;;;;;;;12.02;6.88;;;;;;;;;;5089523;28;20119;-74
2023/08/30 09:55:59;;;;;;;9.88;6.53;;;;;;;;;;5094378;28;20098;-74
2023/08/30 09:58:27;;;;;;;8.73;6.78;;;;;;;;;;5093106;28;20127;-74
2023/08/30 10:00:55;;;;;;;12.50;6.70;;;;;;;;;;5094054;28;20039;-73
2023/08/30 10:03:23;;;;;;;11.95;6.93;;;;;;;;;;5089828;28;20048;-74
2023/08/30 10:06:00;;;;;;;12.55;6.82;;;;;;;;;;5072613;28;20044;-73
2023/08/30 10:08:30;;;;;;;11.30;7.07;;;;;;;;;;5073829;28;20486;-74
2023/08/30 10:10:59;;;;;;;12.45;7.60;;;;;;;;;;5072609;28;20040;-75
2023/08/30 10:13:27;;;;;;;12.27;7.43;;;;;;;;;;5072731;28;20040;-73
2023/08/30 10:15:58;;;;;;;10.95;6.88;;;;;;;;;;5073762;28;20039;-75
2023/08/30 10:18:28;;;;;;;12.55;6.28;;;;;;;;;;5072444;28;20494;-73
2023/08/30 10:20:57;;;;;;;11.23;6.93;;;;;;;;;;5073732;28;20071;-73
2023/08/30 10:23:25;;;;;;;12.35;6.45;;;;;;;;;;5073907;28;20134;-73
2023/08/30 10:25:54;;;;;;;14.13;6.38;;;;;;;;;;5073456;28;20044;-72
2023/08/30 10:28:23;;;;;;;15.20;6.85;;;;;;;;;;5073556;28;20519;-71
2023/08/30 10:30:51;;;;;;;11.73;6.40;;;;;;;;;;5074688;28;20045;-73
2023/08/30 10:33:20;;;;;;;12.45;7.28;;;;;;;;;;5077140;28;20085;-73
2023/08/30 10:35:51;;;;;;;13.50;6.97;;;;;;;;;;5093641;28;20055;-72
2023/08/30 10:38:29;;;;;;;14.70;6.78;;;;;;;;;;5090907;28;20060;-73
2023/08/30 10:41:06;;;;;;;13.07;6.65;;;;;;;;;;5084242;28;20040;-72
2023/08/30 10:43:35;;;;;;;15.43;6.65;;;;;;;;;;5093287;28;20542;-72
2023/08/30 10:46:03;;;;;;;13.35;6.50;;;;;;;;;;5075771;28;20040;-71
2023/08/30 10:48:35;;;;;;;12.85;6.70;;;;;;;;;;5074263;28;20089;-72
2023/08/30 10:51:04;;;;;;;10.02;6.57;;;;;;;;;;5093333;28;20044;-72
2023/08/30 10:53:32;;;;;;;15.00;6.45;;;;;;;;;;5079549;28;20118;-72
2023/08/30 10:56:12;;;;;;;11.05;6.55;;;;;;;;;;5085295;28;20043;-72
2023/08/30 10:58:42;;;;;;;11.95;6.20;;;;;;;;;;5075829;28;20040;-72
2023/08/30 11:01:13;;;;;;;11.02;6.07;;;;;;;;;;5079958;28;20042;-71
2023/08/30 11:03:42;;;;;;;10.48;5.95;;;;;;;;;;5093213;28;20089;-71
2023/08/30 11:06:14;;;;;;;8.68;6.15;;;;;;;;;;5091847;28;20044;-72
2023/08/30 11:08:42;;;;;;;8.30;5.90;;;;;;;;;;5080548;28;20076;-73
2023/08/30 11:11:11;;;;;;;10.13;6.47;;;;;;;;;;5092734;28;20047;-73
2023/08/30 11:13:40;;;;;;;11.10;6.28;;;;;;;;;;5086062;28;20105;-73
2023/08/30 11:16:07;;;;;;;19.08;10.43;;;;;;;;;;5088134;28;20803;-73
2023/08/30 11:18:39;;;;;;;10.27;6.07;;;;;;;;;;5081231;28;20041;-73
2023/08/30 11:21:07;;;;;;;8.73;6.10;;;;;;;;;;5073139;28;20115;-73
2023/08/30 11:23:35;;;;;;;13.75;6.43;;;;;;;;;;5078262;28;20051;-72
2023/08/30 11:26:03;;;;;;;12.88;6.47;;;;;;;;;;5081930;28;20146;-71
2023/08/30 11:28:31;;;;;;;9.60;5.72;;;;;;;;;;5076093;28;20447;-72
2023/08/30 11:30:59;;;;;;;12.60;5.82;;;;;;;;;;5076554;28;20040;-72
2023/08/30 11:33:26;;;;;;;10.23;6.40;;;;;;;;;;5078665;28;20052;-73
2023/08/30 11:35:54;;;;;;;10.18;6.03;;;;;;;;;;5076428;28;20043;-74
2023/08/30 11:38:22;;;;;;;8.63;5.80;;;;;;;;;;5079068;28;20052;-75
2023/08/30 11:40:50;;;;;;;9.40;5.95;;;;;;;;;;5082143;28;20044;-74
2023/08/30 11:43:18;;;;;;;9.75;5.78;;;;;;;;;;5077700;28;20445;-74
2023/08/30 11:45:46;;;;;;;8.88;5.00;;;;;;;;;;5076607;28;20047;-75
2023/08/30 11:48:13;;;;;;;14.60;6.00;;;;;;;;;;5075572;28;20143;-75
2023/08/30 11:50:42;;;;;;;11.68;5.60;;;;;;;;;;5076105;28;20490;-74
2023/08/30 11:53:15;;;;;;;;;;;;;;;;;;5080627;28;20071;-75
2023/08/30 11:55:42;;;;;;;13.18;6.07;;;;;;;;;;5083094;28;19920;-73
2023/08/30 11:58:10;;;;;;;9.30;5.28;;;;;;;;;;5077942;28;20097;-74
2023/08/30 12:00:38;;;;;;;9.98;5.40;;;;;;;;;;5084912;28;20125;-75
2023/08/30 12:03:06;;;;;;;9.80;5.35;;;;;;;;;;5082591;28;20044;-72
2023/08/30 12:05:36;;;;;;;11.20;5.28;;;;;;;;;;5086108;28;20040;-73
2023/08/30 12:08:04;;;;;;;7.70;5.50;;;;;;;;;;5072510;28;20044;-74
2023/08/30 12:10:31;;;;;;;9.82;5.35;;;;;;;;;;5078979;28;20036;-73
2023/08/30 12:12:59;;;;;;;12.93;5.65;;;;;;;;;;5076627;28;20032;-76
2023/08/30 12:15:27;;;;;;;9.75;5.80;;;;;;;;;;5070062;28;20033;-76
2023/08/30 12:17:55;;;;;;;9.13;5.43;;;;;;;;;;5071799;28;20037;-74
2023/08/30 12:20:23;;;;;;;8.93;5.65;;;;;;;;;;5072659;28;20036;-75
2023/08/30 12:22:52;;;;;;;12.38;5.65;;;;;;;;;;5071973;28;20044;-75
2023/08/30 12:25:21;;;;;;;7.95;5.93;;;;;;;;;;5072200;28;20048;-76
2023/08/30 12:27:48;;;;;;;7.10;5.93;;;;;;;;;;5083839;28;20040;-74
2023/08/30 12:30:17;;;;;;;11.40;5.90;;;;;;;;;;5085864;28;20082;-73
2023/08/30 12:32:45;;;;;;;10.82;5.90;;;;;;;;;;5084049;28;20072;-75
2023/08/30 12:35:12;;;;;;;8.95;6.20;;;;;;;;;;5079237;28;20036;-76
2023/08/30 12:37:41;;;;;;;9.75;5.90;;;;;;;;;;5070381;28;20040;-75
2023/08/30 12:40:09;;;;;;;10.15;6.10;;;;;;;;;;5082817;28;20048;-75
2023/08/30 12:42:37;;;;;;;11.10;6.65;;;;;;;;;;5078701;28;20044;-75
2023/08/30 12:45:07;;;;;;;9.80;5.72;;;;;;;;;;5075184;28;20113;-76
2023/08/30 12:47:34;;;;;;;9.68;5.93;;;;;;;;;;5076477;28;20127;-73
2023/08/30 12:50:03;;;;;;;13.35;5.95;;;;;;;;;;5079034;28;20048;-75
2023/08/30 12:52:30;;;;;;;8.10;5.20;;;;;;;;;;5078957;28;20064;-74
2023/08/30 12:54:58;;;;;;;8.60;5.18;;;;;;;;;;5073149;28;20044;-74
2023/08/30 12:57:26;;;;;;;9.55;5.60;;;;;;;;;;5074174;28;20151;-75
2023/08/30 12:59:53;;;;;;;11.98;5.97;;;;;;;;;;5079114;28;20067;-74
2023/08/30 13:02:21;;;;;;;12.05;5.82;;;;;;;;;;5076283;28;20452;-78
2023/08/30 13:04:48;;;;;;;7.72;5.70;;;;;;;;;;5079973;28;20128;-75
2023/08/30 13:07:17;;;;;;;11.23;5.70;;;;;;;;;;5089823;28;20125;-74
2023/08/30 13:09:44;;;;;;;13.55;6.13;;;;;;;;;;5089993;28;20031;-74
2023/08/30 13:12:12;;;;;;;6.20;5.43;;;;;;;;;;5089847;28;20036;-75
2023/08/30 13:14:40;;;;;;;9.57;5.45;;;;;;;;;;5089475;28;20067;-74
2023/08/30 13:17:07;;;;;;;11.43;5.90;;;;;;;;;;5089734;28;20440;-75
2023/08/30 13:19:35;;;;;;;12.75;5.90;;;;;;;;;;5089614;28;20044;-73
2023/08/30 13:22:02;;;;;;;11.80;5.93;;;;;;;;;;5075743;28;20509;-75
2023/08/30 13:24:32;;;;;;;9.25;5.68;;;;;;;;;;5075031;28;20043;-74
2023/08/30 13:27:00;;;;;;;9.45;6.47;;;;;;;;;;5089368;28;20511;-74
2023/08/30 13:29:27;;;;;;;9.77;5.72;;;;;;;;;;5089451;28;20040;-73
2023/08/30 13:31:55;;;;;;;9.60;5.97;;;;;;;;;;5089665;28;20673;-75
2023/08/30 13:34:22;;;;;;;10.00;5.95;;;;;;;;;;5087975;28;20097;-75
2023/08/30 13:36:50;;;;;;;8.77;6.03;;;;;;;;;;5086839;28;20043;-74
2023/08/30 13:39:20;;;;;;;8.48;5.88;;;;;;;;;;5089230;28;20688;-75
2023/08/30 13:41:47;;;;;;;7.93;5.70;;;;;;;;;;5088603;28;20543;-74
2023/08/30 13:44:15;;;;;;;10.23;6.18;;;;;;;;;;5088018;28;20130;-74
2023/08/30 13:46:43;;;;;;;10.25;7.05;;;;;;;;;;5088709;28;20048;-73
2023/08/30 13:49:11;;;;;;;8.95;5.65;;;;;;;;;;5088599;28;20548;-73
2023/08/30 13:51:39;;;;;;;7.03;5.40;;;;;;;;;;5088802;28;20044;-72
2023/08/30 13:54:06;;;;;;;11.00;6.38;;;;;;;;;;5088811;28;20533;-72
2023/08/30 13:56:34;;;;;;;13.90;5.80;;;;;;;;;;5088495;28;20401;-73
2023/08/30 13:59:01;;;;;;;12.70;6.03;;;;;;;;;;5087232;28;20389;-72
2023/08/30 14:01:28;;;;;;;10.95;5.95;;;;;;;;;;5072766;28;20455;-71
2023/08/30 14:03:56;;;;;;;10.07;5.70;;;;;;;;;;5088247;28;20040;-74
2023/08/30 14:06:24;;;;;;;10.82;5.65;;;;;;;;;;5088291;28;20572;-74
2023/08/30 14:08:51;;;;;;;12.77;5.95;;;;;;;;;;5088514;28;20047;-73
2023/08/30 14:11:19;;;;;;;8.00;5.85;;;;;;;;;;5076845;28;20033;-73
2023/08/30 14:13:47;;;;;;;9.75;6.20;;;;;;;;;;5067489;28;20484;-73
2023/08/30 14:16:14;;;;;;;10.95;5.80;;;;;;;;;;5080308;28;20089;-73
2023/08/30 14:18:43;;;;;;;10.60;5.63;;;;;;;;;;5093918;28;20071;-72
2023/08/30 14:21:11;;;;;;;8.00;6.03;;;;;;;;;;5091586;28;20401;-73
2023/08/30 14:23:38;;;;;;;9.05;6.03;;;;;;;;;;5092509;28;20512;-73
2023/08/30 14:26:10;;;;;;;10.60;6.18;;;;;;;;;;5093614;28;20048;-74
2023/08/30 14:28:38;;;;;;;10.27;6.07;;;;;;;;;;5093775;28;20040;-74
2023/08/30 14:31:09;;;;;;;10.35;6.30;;;;;;;;;;5092484;28;20543;-74
2023/08/30 14:33:38;;;;;;;9.02;6.03;;;;;;;;;;5091953;28;20101;-74
2023/08/30 14:36:15;;;;;;;12.93;5.57;;;;;;;;;;5093142;28;20485;-72
2023/08/30 14:38:43;;;;;;;11.98;6.07;;;;;;;;;;5093148;28;20305;-74
2023/08/30 14:41:12;;;;;;;9.32;6.35;;;;;;;;;;5093458;28;20497;-75
2023/08/30 14:43:39;;;;;;;11.32;6.20;;;;;;;;;;5093498;28;20101;-74
2023/08/30 14:46:07;;;;;;;10.30;6.32;;;;;;;;;;5093462;28;20051;-74